createdAt,value
2022-10-18T09:59:27.495Z,0
2022-10-18T10:04:34.520Z,0
2022-10-18T10:09:41.525Z,0
2022-10-18T10:14:48.668Z,0
2022-10-18T10:19:55.656Z,0
2022-10-18T10:25:01.830Z,0
2022-10-18T10:30:08.634Z,0
2022-10-18T10:35:14.914Z,0
2022-10-18T10:40:20.612Z,0
2022-10-18T10:45:27.546Z,0
2022-10-18T10:50:33.867Z,0
2022-10-18T10:55:40.526Z,0
2022-10-18T11:00:46.928Z,0
2022-10-18T11:05:53.521Z,0
2022-10-18T11:10:59.971Z,0
2022-10-18T11:16:06.765Z,0
2022-10-18T11:21:13.716Z,0
2022-10-18T11:26:20.693Z,0
2022-10-18T11:31:27.538Z,0
2022-10-18T11:36:34.545Z,0
2022-10-18T11:41:39.930Z,0
2022-10-18T11:46:45.526Z,0
2022-10-18T11:51:51.960Z,0
2022-10-18T11:56:58.557Z,0
2022-10-18T12:02:04.874Z,0
2022-10-18T12:07:11.541Z,0
2022-10-18T12:12:17.860Z,0
2022-10-18T12:17:24.534Z,0
2022-10-18T12:22:30.935Z,0
2022-10-18T12:27:37.537Z,0
2022-10-18T12:32:43.870Z,0
2022-10-18T12:37:50.570Z,0
2022-10-18T12:42:56.857Z,0
2022-10-18T12:48:03.539Z,0
2022-10-18T12:53:09.980Z,0
2022-10-18T12:58:15.550Z,0
2022-10-18T13:03:21.963Z,0
2022-10-18T13:08:28.540Z,0
2022-10-18T13:13:34.861Z,0
2022-10-18T13:18:41.547Z,0
2022-10-18T13:23:47.865Z,0
2022-10-18T13:28:53.537Z,0
2022-10-18T13:33:59.009Z,0
2022-10-18T13:39:04.578Z,0
2022-10-18T13:44:09.898Z,0
2022-10-18T13:49:16.597Z,0
2022-10-18T13:54:22.872Z,0
2022-10-18T13:59:29.537Z,0
2022-10-18T14:04:35.952Z,0
2022-10-18T14:09:42.599Z,0
2022-10-18T14:14:48.935Z,0
2022-10-18T14:19:55.567Z,0
2022-10-18T14:25:01.923Z,0
2022-10-18T14:30:08.569Z,45
2022-10-18T14:55:40.887Z,174
2022-10-18T15:00:47.511Z,157
2022-10-18T15:05:53.906Z,163
2022-10-18T15:11:00.510Z,174
2022-10-18T15:16:06.845Z,151
2022-10-18T15:21:13.543Z,101
2022-10-18T15:26:19.910Z,73
2022-10-18T15:31:26.532Z,67
2022-10-18T15:36:33.024Z,56
2022-10-18T15:41:39.547Z,56
2022-10-18T15:46:45.839Z,56
2022-10-18T15:51:52.526Z,50
2022-10-18T15:56:58.939Z,45
2022-10-18T16:02:05.547Z,33
2022-10-18T16:07:11.927Z,28
2022-10-18T16:12:18.680Z,22
2022-10-18T16:17:25.215Z,11
2022-10-18T16:22:31.766Z,5
2022-10-18T16:27:38.661Z,0
2022-10-18T16:32:44.949Z,0
2022-10-18T16:37:51.521Z,0
2022-10-18T16:42:57.888Z,0
2022-10-18T16:48:04.523Z,0
2022-10-18T16:53:10.918Z,0
2022-10-18T16:58:17.774Z,0
2022-10-18T17:08:31.018Z,0
2022-10-18T17:13:37.745Z,0
2022-10-18T17:18:44.208Z,0
